Huntsville, Texas
Current Conditions -  °F | °C
As of 6:53 PM on Tuesday 21 Oct 2014 (Local Time) from KUTS Reporting Station
Clear Clear  
Wind Chill: 74°   Ceiling: Unl
Heat Index: 74°   Visibility: 10mi
Dew Point: 59°   Wind: 0mph
Humidity: 59%   Direction: NA
Pressure: 30.01"   Gusts: NA
Location:  30.72°N, 95.55°W
Report Text: KUTS 212353Z AUTO 00000KT 10SM CLR 23/15 A3001 RMK AO2 SLP160 T02330150 10278 20233 53000
Loading
Personal Weather Stations






























Interactive Weather Map
Tropical Storm Tracking
New forecast layout! Learn more

10-Day Weather Forecast

Advertisements
Track Severe Weather on mobile